Time;durP1;ratioP1;P1;durP2;ratioP2;P2;SDS_P1;SDS_P2;PMS_P1;PMS_P2;Temp;Humidity;BMP_temperature;BMP_pressure;BME280_temperature;BME280_humidity;BME280_pressure;Samples;Min_cycle;Max_cycle;Signal;HPM_P1;HPM_P2
2023/06/20 00:01:19;;;;;;;6.20;5.10;;;20.60;99.90;;;20.63;100.00;96817.94;5030186;28;20031;-36
2023/06/20 00:03:45;;;;;;;6.40;5.43;;;20.60;99.90;;;20.66;100.00;96817.69;5032565;28;20033;-36
2023/06/20 00:06:11;;;;;;;5.88;5.18;;;20.70;99.90;;;20.69;100.00;96827.28;5031605;28;20083;-36
2023/06/20 00:08:37;;;;;;;5.97;5.47;;;20.70;99.90;;;20.73;100.00;96836.78;5032164;28;20041;-36
2023/06/20 00:11:02;;;;;;;6.15;5.03;;;20.70;99.90;;;20.72;100.00;96837.75;5034273;28;20036;-36
2023/06/20 00:13:28;;;;;;;8.80;5.57;;;20.80;99.90;;;20.88;100.00;96854.16;5030630;28;20510;-36
2023/06/20 00:15:57;;;;;;;6.57;5.43;;;20.90;99.90;;;21.00;100.00;96864.78;5029201;28;20041;-36
2023/06/20 00:18:24;;;;;;;5.32;4.82;;;21.00;99.90;;;21.12;100.00;96871.75;5029568;28;21062;-36
2023/06/20 00:20:52;;;;;;;5.35;4.85;;;21.10;99.90;;;21.21;100.00;96875.47;5029628;28;20044;-36
2023/06/20 00:23:24;;;;;;;6.03;5.32;;;21.20;99.90;;;21.29;100.00;96873.81;5030916;28;20087;-36
2023/06/20 00:25:50;;;;;;;5.72;5.13;;;21.30;99.90;;;21.44;100.00;96885.00;5030200;28;20033;-36
2023/06/20 00:28:17;;;;;;;6.85;4.95;;;21.40;99.90;;;21.48;100.00;96883.78;5029839;28;20032;-36
2023/06/20 00:30:45;;;;;;;7.10;5.10;;;21.50;99.90;;;21.63;100.00;96904.84;5025547;28;20086;-36
2023/06/20 00:33:11;;;;;;;7.53;5.30;;;21.60;99.90;;;21.79;100.00;96909.69;5015889;28;20036;-36
2023/06/20 00:35:37;;;;;;;5.78;4.80;;;21.70;99.90;;;21.84;100.00;96940.50;5028430;28;20033;-36
2023/06/20 00:38:03;;;;;;;5.40;4.60;;;21.80;99.90;;;21.92;100.00;96958.59;5031107;28;20506;-36
2023/06/20 00:40:29;;;;;;;5.78;4.85;;;21.90;99.90;;;21.95;100.00;96977.09;5031827;28;20033;-36
2023/06/20 00:42:55;;;;;;;6.15;5.40;;;21.90;99.90;;;21.99;100.00;96999.16;5031896;28;20025;-36
2023/06/20 00:45:32;;;;;;;7.47;5.80;;;21.90;99.90;;;21.74;100.00;97002.19;5026138;28;20032;-36
2023/06/20 00:48:05;;;;;;;10.35;6.05;;;21.70;99.90;;;21.25;100.00;96985.00;5031125;28;20068;-36
2023/06/20 00:50:32;;;;;;;7.68;6.10;;;21.30;99.90;;;20.85;100.00;96999.16;5027698;28;20156;-36
2023/06/20 00:53:05;;;;;;;14.77;6.57;;;20.80;99.90;;;20.49;100.00;97020.00;5008196;28;20041;-36
2023/06/20 00:55:33;;;;;;;8.60;6.88;;;20.40;99.90;;;20.16;100.00;97019.13;5023900;28;20073;-36
2023/06/20 00:58:00;;;;;;;9.32;6.30;;;20.10;99.90;;;19.87;100.00;97018.00;5031452;28;20035;-36
2023/06/20 01:00:32;;;;;;;8.05;6.63;;;19.90;99.90;;;19.68;100.00;97013.22;5026622;28;20029;-36
2023/06/20 01:03:01;;;;;;;9.03;6.87;;;19.70;99.90;;;19.47;100.00;97032.69;5027305;28;20126;-36
2023/06/20 01:05:29;;;;;;;9.15;7.00;;;19.50;99.90;;;19.26;100.00;97030.72;5026473;28;20108;-36
2023/06/20 01:08:04;;;;;;;8.55;6.70;;;19.30;99.90;;;19.17;100.00;97031.44;5011541;28;20049;-36
2023/06/20 01:10:54;;;;;;;9.07;7.03;;;19.20;99.90;;;19.11;100.00;97033.72;5030866;28;20040;-36
2023/06/20 01:13:47;;;;;;;8.57;6.97;;;19.20;99.90;;;19.06;100.00;97044.78;5028355;28;20045;-36
2023/06/20 01:16:50;;;;;;;9.80;7.68;;;19.10;99.90;;;18.95;100.00;97044.75;5025161;28;20139;-36
2023/06/20 01:19:53;;;;;;;9.83;6.87;;;19.00;99.90;;;18.87;100.00;97034.66;5017870;28;20025;-35
2023/06/20 01:22:41;;;;;;;7.32;6.60;;;18.90;99.90;;;18.79;100.00;97024.53;5014097;28;20279;-36
2023/06/20 01:25:19;;;;;;;8.48;6.50;;;18.80;99.90;;;18.75;100.00;97027.53;5026725;28;20070;-36
2023/06/20 01:28:05;;;;;;;8.30;6.18;;;18.80;99.90;;;18.70;100.00;97030.56;5024527;28;20036;-36
2023/06/20 01:30:41;;;;;;;7.15;5.80;;;18.70;99.90;;;18.65;100.00;97028.22;5030377;28;21248;-35
2023/06/20 01:33:08;;;;;;;8.77;5.50;;;18.70;99.90;;;18.60;100.00;97022.38;5008355;28;20060;-36
2023/06/20 01:35:36;;;;;;;5.75;5.05;;;18.60;99.90;;;18.60;100.00;97016.19;5028872;28;20037;-35
2023/06/20 01:38:08;;;;;;;6.10;5.18;;;18.60;99.90;;;18.48;100.00;97013.50;5015322;28;20637;-35
2023/06/20 01:40:37;;;;;;;7.88;4.90;;;18.50;99.90;;;18.46;100.00;97009.22;5026407;28;20033;-35
2023/06/20 01:43:06;;;;;;;5.90;4.75;;;18.50;99.90;;;18.34;100.00;96983.44;5029236;28;20033;-35
2023/06/20 01:45:37;;;;;;;6.47;4.53;;;18.50;99.90;;;18.34;100.00;96986.09;5027992;28;20036;-35
2023/06/20 01:48:05;;;;;;;5.25;4.70;;;18.40;99.90;;;18.30;100.00;96997.03;5030851;28;20498;-36
2023/06/20 01:50:32;;;;;;;6.82;4.60;;;18.30;99.90;;;18.36;100.00;97016.22;5015631;28;20043;-36
2023/06/20 01:52:59;;;;;;;5.47;4.57;;;18.40;99.90;;;18.28;100.00;96992.75;5028912;28;20120;-36
2023/06/20 01:55:26;;;;;;;6.63;4.97;;;18.30;99.90;;;18.26;100.00;96984.03;5015361;28;20024;-35
2023/06/20 01:57:54;;;;;;;5.80;4.40;;;18.30;99.90;;;18.27;100.00;96983.91;5015517;28;20835;-36
2023/06/20 02:00:22;;;;;;;5.47;4.55;;;18.30;99.90;;;18.35;100.00;96985.16;5027610;28;20033;-36
2023/06/20 02:02:49;;;;;;;6.82;4.75;;;18.30;99.90;;;18.26;100.00;96984.03;5028529;28;20038;-35
2023/06/20 02:05:15;;;;;;;5.30;4.68;;;18.30;99.90;;;18.26;100.00;96989.34;5013986;28;20029;-35
2023/06/20 02:07:43;;;;;;;5.72;4.47;;;18.30;99.90;;;18.23;100.00;96984.25;5029732;28;20090;-35
2023/06/20 02:10:10;;;;;;;9.35;5.05;;;18.30;99.90;;;18.27;100.00;96988.41;5010370;28;20067;-36
2023/06/20 02:12:37;;;;;;;7.00;4.75;;;18.30;99.90;;;18.25;100.00;96983.19;5024942;28;20680;-36
2023/06/20 02:15:04;;;;;;;7.72;4.75;;;18.40;99.90;;;18.24;100.00;96977.94;5028178;28;20036;-35
2023/06/20 02:17:31;;;;;;;7.32;4.57;;;18.30;99.90;;;18.28;100.00;96974.09;5029824;28;20514;-35
2023/06/20 02:19:57;;;;;;;4.95;4.45;;;18.40;99.90;;;18.25;100.00;96968.97;5015606;28;20568;-36
2023/06/20 02:22:25;;;;;;;7.35;4.40;;;18.40;99.90;;;18.23;100.00;96970.91;5014308;28;20029;-35
2023/06/20 02:24:53;;;;;;;6.15;4.75;;;18.30;99.90;;;18.21;100.00;96964.81;5013421;28;20037;-36
2023/06/20 02:27:21;;;;;;;5.88;5.05;;;18.30;99.90;;;18.20;100.00;96955.13;5011996;28;20064;-36
2023/06/20 02:29:50;;;;;;;5.35;4.85;;;18.30;99.90;;;18.19;100.00;96954.25;5033582;28;20461;-36
2023/06/20 02:32:19;;;;;;;5.90;5.10;;;18.30;99.90;;;18.15;100.00;96944.78;5014163;28;20048;-36
2023/06/20 02:34:48;;;;;;;6.10;4.60;;;18.30;99.90;;;18.07;100.00;96945.38;5013664;28;20163;-36
2023/06/20 02:37:14;;;;;;;5.50;4.20;;;18.20;99.90;;;18.10;100.00;96950.47;5033032;28;21264;-36
2023/06/20 02:39:40;;;;;;;6.72;4.50;;;18.20;99.90;;;18.07;100.00;96947.16;5033663;28;20029;-36
2023/06/20 02:42:06;;;;;;;4.65;4.22;;;18.10;99.90;;;18.01;100.00;96944.97;5015158;28;20060;-36
2023/06/20 02:44:31;;;;;;;6.00;4.70;;;18.20;99.90;;;17.99;100.00;96946.91;5028956;28;20510;-36
2023/06/20 02:47:33;;;;;;;4.72;4.30;;;18.10;99.90;;;17.92;100.00;96939.34;5029889;28;20239;-36
2023/06/20 02:50:26;;;;;;;4.53;3.90;;;18.10;99.90;;;17.89;100.00;96949.38;5018573;28;20560;-36
2023/06/20 02:53:17;;;;;;;5.25;4.47;;;18.00;99.90;;;17.84;100.00;96946.19;5004757;28;20051;-36
2023/06/20 02:56:05;;;;;;;5.25;4.28;;;17.90;99.90;;;17.77;100.00;96934.28;5029224;28;20124;-36
2023/06/20 02:58:33;;;;;;;5.22;4.43;;;17.90;99.90;;;17.75;100.00;96924.56;5012446;28;20135;-36
2023/06/20 03:01:01;;;;;;;5.05;4.55;;;17.90;99.90;;;17.74;100.00;96940.66;5027206;28;20758;-36
2023/06/20 03:03:36;;;;;;;4.78;4.20;;;17.80;99.90;;;17.71;100.00;96943.56;5030401;28;23009;-36
2023/06/20 03:06:05;;;;;;;5.97;4.50;;;17.80;99.90;;;17.71;100.00;96951.56;5030973;28;20029;-36
2023/06/20 03:08:32;;;;;;;6.97;4.55;;;17.80;99.90;;;17.65;100.00;96944.00;5019514;28;20475;-36
2023/06/20 03:10:58;;;;;;;4.25;3.85;;;17.80;99.90;;;17.65;100.00;96950.19;5016464;28;20056;-36
2023/06/20 03:13:25;;;;;;;5.18;4.68;;;17.80;99.90;;;17.63;100.00;96943.28;5028683;28;20037;-36
2023/06/20 03:15:51;;;;;;;5.63;4.53;;;17.70;99.90;;;17.61;100.00;96964.72;5030643;28;20334;-36
2023/06/20 03:18:18;;;;;;;5.20;4.70;;;17.70;99.90;;;17.57;100.00;96968.56;5032837;28;20570;-36
2023/06/20 03:20:48;;;;;;;5.00;4.35;;;17.70;99.90;;;17.56;100.00;96961.53;5026963;28;20219;-36
2023/06/20 03:23:14;;;;;;;6.15;4.40;;;17.70;99.90;;;17.54;100.00;96958.97;5033240;28;20040;-36
2023/06/20 03:25:41;;;;;;;6.20;4.25;;;17.60;99.90;;;17.54;100.00;96960.78;5030692;28;20028;-36
2023/06/20 03:28:07;;;;;;;5.07;4.22;;;17.60;99.90;;;17.47;100.00;96959.53;5024770;28;20162;-36
2023/06/20 03:30:33;;;;;;;5.45;3.88;;;17.60;99.90;;;17.50;100.00;96972.66;5032534;28;20119;-36
2023/06/20 03:32:58;;;;;;;8.00;4.70;;;17.60;99.90;;;17.48;100.00;96967.41;5033403;28;20025;-36
2023/06/20 03:35:24;;;;;;;4.55;3.95;;;17.60;99.90;;;17.48;100.00;96962.09;5033987;28;20048;-36
2023/06/20 03:37:50;;;;;;;4.82;4.15;;;17.60;99.90;;;17.47;100.00;96967.53;5020239;28;20608;-35
2023/06/20 03:40:16;;;;;;;4.65;4.18;;;17.50;99.90;;;17.46;100.00;96965.81;5030950;28;20043;-35
2023/06/20 03:42:42;;;;;;;5.35;4.22;;;17.60;99.90;;;17.42;100.00;96962.50;5031799;28;20138;-35
2023/06/20 03:45:08;;;;;;;5.82;3.90;;;17.60;99.90;;;17.44;100.00;96967.72;5032545;28;20390;-35
2023/06/20 03:47:34;;;;;;;4.65;4.00;;;17.50;99.90;;;17.45;100.00;96969.44;5035498;28;20036;-36
2023/06/20 03:50:00;;;;;;;5.45;4.90;;;17.60;99.90;;;17.42;100.00;96962.50;5033615;28;20033;-35
2023/06/20 03:52:25;;;;;;;4.90;4.38;;;17.50;99.90;;;17.41;100.00;96958.16;5033556;28;20041;-35
2023/06/20 03:54:51;;;;;;;5.15;4.32;;;17.50;99.90;;;17.41;100.00;96954.63;5026454;28;20179;-36
2023/06/20 03:57:17;;;;;;;4.70;4.30;;;17.50;99.90;;;17.40;100.00;96955.59;5025636;28;20240;-36
2023/06/20 03:59:42;;;;;;;6.68;4.78;;;17.50;99.90;;;17.38;100.00;96950.38;5027706;28;20021;-35
2023/06/20 04:02:08;;;;;;;5.97;4.53;;;17.50;99.90;;;17.31;100.00;96938.44;5030576;28;20470;-35
2023/06/20 04:04:34;;;;;;;7.13;4.50;;;17.50;99.90;;;17.27;100.00;96927.16;5032257;28;20036;-35
2023/06/20 04:06:59;;;;;;;5.38;4.60;;;17.50;99.90;;;17.47;100.00;96951.53;5033893;28;20279;-36
2023/06/20 04:09:26;;;;;;;5.18;4.68;;;17.60;99.90;;;17.49;100.00;96961.09;5025316;28;20737;-35
2023/06/20 04:11:53;;;;;;;6.30;4.45;;;17.60;99.90;;;17.54;100.00;96956.31;5031645;28;20029;-35
2023/06/20 04:14:19;;;;;;;7.47;4.85;;;17.60;99.90;;;17.51;100.00;96953.84;5029415;28;20764;-36
2023/06/20 04:16:47;;;;;;;4.97;4.47;;;17.60;99.90;;;17.62;100.00;96965.56;5034820;28;20736;-36
2023/06/20 04:19:14;;;;;;;5.43;4.50;;;17.70;99.90;;;17.66;100.00;96962.56;5031366;28;20394;-36
2023/06/20 04:21:40;;;;;;;6.05;4.75;;;17.80;99.90;;;17.69;100.00;96951.69;5028550;28;20021;-36
2023/06/20 04:24:06;;;;;;;6.07;4.40;;;17.80;99.90;;;17.82;100.00;96962.31;5034719;28;20029;-36
2023/06/20 04:26:31;;;;;;;7.47;5.35;;;17.90;99.90;;;17.88;100.00;96963.72;5033851;28;20037;-36
2023/06/20 04:28:57;;;;;;;5.30;4.22;;;17.90;99.90;;;17.93;100.00;96964.22;5027433;28;20501;-36
2023/06/20 04:31:24;;;;;;;6.35;4.72;;;18.00;99.90;;;18.00;100.00;96969.94;5030528;28;20505;-36
2023/06/20 04:33:50;;;;;;;5.68;4.70;;;18.10;99.90;;;18.05;100.00;96958.00;5024391;28;20046;-36
2023/06/20 04:36:15;;;;;;;5.22;4.60;;;18.10;99.90;;;18.10;100.00;96961.13;5031597;28;20051;-36
2023/06/20 04:38:42;;;;;;;5.78;3.85;;;18.20;99.90;;;18.13;100.00;96950.25;5026619;28;20033;-36
2023/06/20 04:41:11;;;;;;;5.85;4.57;;;18.20;99.90;;;18.21;100.00;96949.66;5030137;28;20027;-36
2023/06/20 04:43:37;;;;;;;5.05;4.13;;;18.30;99.90;;;18.24;100.00;96948.59;5022649;28;20187;-36
2023/06/20 04:46:03;;;;;;;4.95;4.28;;;18.30;99.90;;;18.29;100.00;96951.78;5028009;28;20115;-36
2023/06/20 04:48:35;;;;;;;5.45;4.25;;;18.40;99.90;;;18.34;100.00;96952.28;5013073;28;20330;-36
2023/06/20 04:51:02;;;;;;;5.05;3.80;;;18.40;99.90;;;18.37;100.00;96952.03;5029101;28;20041;-36
2023/06/20 04:53:28;;;;;;;6.13;4.47;;;18.50;99.90;;;18.41;100.00;96948.19;5027978;28;20498;-36
2023/06/20 04:55:55;;;;;;;10.38;4.97;;;18.50;99.90;;;18.46;100.00;96940.66;5028657;28;20483;-36
2023/06/20 04:58:21;;;;;;;6.03;4.18;;;18.60;99.90;;;18.61;100.00;96951.13;5030751;28;20057;-35
2023/06/20 05:00:47;;;;;;;7.18;4.90;;;18.70;99.90;;;18.64;100.00;96948.22;5028707;28;20463;-35
2023/06/20 05:03:13;;;;;;;5.38;4.07;;;18.70;99.90;;;18.71;100.00;96952.13;5027993;28;20033;-35
2023/06/20 05:05:40;;;;;;;6.22;4.57;;;18.80;99.90;;;18.79;100.00;96957.75;5030925;28;20548;-36
2023/06/20 05:08:06;;;;;;;6.55;3.72;;;18.90;99.90;;;18.90;100.00;96962.28;5031621;28;20137;-36
2023/06/20 05:10:31;;;;;;;5.00;3.72;;;19.00;99.90;;;18.98;100.00;96977.72;5030312;28;20394;-36
2023/06/20 05:12:57;;;;;;;4.18;3.78;;;19.10;99.90;;;19.07;100.00;96972.50;5032074;28;20067;-36
2023/06/20 05:15:23;;;;;;;4.72;3.67;;;19.10;99.90;;;19.14;100.00;96980.88;5022135;28;20465;-36
2023/06/20 05:17:53;;;;;;;6.22;3.60;;;19.20;99.90;;;19.24;100.00;96987.22;5017512;28;20051;-36
2023/06/20 05:20:19;;;;;;;6.40;3.58;;;19.30;99.90;;;19.29;100.00;96986.88;5012932;28;20055;-36
2023/06/20 05:22:45;;;;;;;6.00;3.63;;;19.40;99.90;;;19.39;100.00;96979.81;5029007;28;20745;-36
2023/06/20 05:25:11;;;;;;;4.68;3.42;;;19.40;99.90;;;19.46;100.00;96981.00;5031176;28;20171;-36
2023/06/20 05:27:37;;;;;;;5.80;3.20;;;19.50;99.90;;;19.57;100.00;96969.47;5038305;28;20101;-36
2023/06/20 05:30:05;;;;;;;5.90;3.65;;;19.60;99.90;;;19.98;100.00;96984.00;5033170;28;20033;-37
2023/06/20 05:32:31;;;;;;;7.88;3.60;;;19.80;99.90;;;20.42;100.00;96986.66;5061935;22;20147;-37
2023/06/20 05:34:56;;;;;;;5.95;3.35;;;20.10;99.90;;;20.70;100.00;96990.59;5083360;28;20050;-39
2023/06/20 05:37:22;;;;;;;5.10;3.47;;;20.40;99.90;;;20.84;100.00;96985.91;5082712;28;20046;-38
2023/06/20 05:39:48;;;;;;;4.78;3.47;;;20.50;99.90;;;20.88;100.00;96995.38;5081824;28;20055;-39
2023/06/20 05:42:13;;;;;;;4.22;3.40;;;20.60;99.90;;;20.83;100.00;96997.59;5081732;28;20028;-39
2023/06/20 05:44:39;;;;;;;8.60;3.70;;;20.70;99.90;;;20.68;100.00;96976.47;5076288;28;20062;-38
2023/06/20 05:47:05;;;;;;;7.10;4.18;;;20.70;99.90;;;20.81;100.00;97000.41;5081383;28;20032;-38
2023/06/20 05:49:32;;;;;;;6.43;3.42;;;20.80;99.90;;;20.83;100.00;96992.22;5084244;28;20035;-38
2023/06/20 05:51:57;;;;;;;6.28;4.03;;;20.80;99.90;;;20.85;100.00;96985.75;5081755;28;20260;-38
2023/06/20 05:54:24;;;;;;;5.15;3.72;;;20.90;99.90;;;20.85;100.00;96992.94;5080960;28;20421;-37
2023/06/20 05:56:51;;;;;;;5.50;3.75;;;20.90;99.90;;;20.96;100.00;96996.41;5077977;28;20063;-38
2023/06/20 05:59:17;;;;;;;4.93;3.42;;;21.00;99.90;;;21.12;100.00;96995.97;5079780;28;20408;-38
2023/06/20 06:01:44;;;;;;;7.28;4.10;;;21.10;99.90;;;21.21;100.00;96991.63;5082527;28;20092;-39
2023/06/20 06:04:10;;;;;;;7.80;4.20;;;21.20;99.90;;;21.37;100.00;96996.50;5082171;28;20425;-38
2023/06/20 06:06:36;;;;;;;5.20;3.47;;;21.30;99.90;;;21.52;100.00;96997.88;5086242;28;20477;-38
2023/06/20 06:09:03;;;;;;;5.78;3.60;;;21.50;99.90;;;21.67;100.00;97000.19;5087328;28;20193;-38
2023/06/20 06:11:29;;;;;;;4.43;3.60;;;21.60;99.90;;;21.80;100.00;97013.38;5078415;28;20024;-38
2023/06/20 06:13:55;;;;;;;7.60;3.80;;;21.80;99.90;;;21.91;100.00;97013.25;5081554;28;20452;-37
2023/06/20 06:16:21;;;;;;;8.55;4.07;;;21.90;99.90;;;22.02;100.00;97014.97;5075737;28;20110;-39
2023/06/20 06:18:47;;;;;;;6.53;3.72;;;22.00;99.90;;;22.16;100.00;97017.25;5070700;28;20024;-38
2023/06/20 06:21:12;;;;;;;6.72;4.00;;;22.10;99.90;;;22.26;100.00;97007.44;5076334;28;20031;-38
2023/06/20 06:23:38;;;;;;;5.97;3.78;;;22.20;99.90;;;22.37;100.00;97021.72;5078331;28;20607;-38
2023/06/20 06:26:04;;;;;;;5.95;3.92;;;22.30;99.90;;;22.48;100.00;97013.53;5079934;28;20028;-38
2023/06/20 06:28:30;;;;;;;4.78;3.80;;;22.40;99.90;;;22.59;100.00;97018.75;5082233;28;20101;-38
2023/06/20 06:31:00;;;;;;;5.57;3.83;;;22.50;99.90;;;22.71;100.00;97021.31;5084648;28;20027;-38
2023/06/20 06:33:28;;;;;;;4.60;3.95;;;22.70;99.90;;;22.85;100.00;97023.56;5078823;28;20374;-38
2023/06/20 06:35:55;;;;;;;9.90;4.50;;;22.80;99.90;;;22.91;100.00;97027.53;5082928;28;20119;-39
2023/06/20 06:38:22;;;;;;;6.47;4.07;;;22.90;99.90;;;22.98;100.00;97021.44;5082964;28;20464;-38
2023/06/20 06:40:47;;;;;;;5.32;4.18;;;22.90;99.90;;;23.09;100.00;97022.31;5081978;28;20596;-38
2023/06/20 06:43:14;;;;;;;6.57;3.80;;;23.00;99.90;;;23.26;100.00;97016.19;5081811;28;20481;-39
2023/06/20 06:45:40;;;;;;;7.78;4.20;;;23.10;99.90;;;23.35;100.00;97026.06;5079656;28;20473;-39
2023/06/20 06:48:06;;;;;;;6.18;3.75;;;23.20;99.90;;;23.46;100.00;97018.84;5083546;28;20470;-40
2023/06/20 06:50:32;;;;;;;3.92;3.35;;;23.30;99.90;;;23.60;100.00;97027.28;5084944;28;20028;-41
2023/06/20 06:52:57;;;;;;;7.50;4.40;;;23.50;99.90;;;23.72;98.98;97019.00;5084105;28;20405;-39
2023/06/20 06:55:23;;;;;;;5.10;3.80;;;23.60;99.90;;;23.80;97.53;97022.69;5076882;28;20545;-39
2023/06/20 06:57:49;;;;;;;5.32;3.45;;;23.60;99.90;;;23.93;98.54;97030.41;5080527;28;20020;-39
2023/06/20 07:00:15;;;;;;;6.63;4.00;;;23.70;99.90;;;24.09;99.95;97021.69;5076764;28;20070;-39
2023/06/20 07:02:43;;;;;;;5.32;4.22;;;23.90;99.90;;;24.23;96.16;97022.16;5082553;28;20180;-39
2023/06/20 07:05:10;;;;;;;4.32;3.47;;;24.00;99.90;;;24.38;94.93;97015.25;5087460;28;20070;-41
2023/06/20 07:07:36;;;;;;;7.15;4.00;;;24.10;99.90;;;24.44;94.11;97025.41;5084540;28;20028;-39
2023/06/20 07:10:02;;;;;;;8.02;4.50;;;24.20;99.90;;;24.40;91.69;97018.63;5085567;28;20480;-40
2023/06/20 07:12:28;;;;;;;6.68;3.92;;;24.30;99.90;;;24.46;94.98;97019.88;5087101;28;20028;-40
2023/06/20 07:14:56;;;;;;;6.57;4.50;;;24.30;99.90;;;24.50;98.59;97016.72;5082672;28;20059;-40
2023/06/20 07:17:26;;;;;;;7.15;3.95;;;24.40;99.90;;;24.61;91.58;97012.16;5082248;28;20028;-40
2023/06/20 07:19:54;;;;;;;6.10;4.10;;;24.50;99.90;;;24.69;90.98;97020.28;5089630;28;20376;-39
2023/06/20 07:22:21;;;;;;;7.82;4.07;;;24.50;99.90;;;24.79;94.77;97015.69;5083513;27;20028;-40
2023/06/20 07:24:47;;;;;;;6.32;3.88;;;24.70;99.90;;;24.95;94.96;97014.97;5084769;28;20462;-40
2023/06/20 07:27:12;;;;;;;9.43;4.38;;;24.80;99.90;;;25.10;90.15;97010.69;5087983;28;20031;-39
2023/06/20 07:29:38;;;;;;;6.38;3.78;;;25.00;99.90;;;25.26;88.74;97014.56;5086854;28;20031;-39
2023/06/20 07:32:04;;;;;;;8.48;4.43;;;25.10;99.90;;;25.34;87.01;97018.16;5086982;27;20516;-40
2023/06/20 07:34:30;;;;;;;8.68;4.45;;;25.20;99.90;;;25.40;85.13;97019.38;5084664;28;20047;-41
2023/06/20 07:36:56;;;;;;;9.57;4.85;;;25.30;99.90;;;25.47;88.32;97017.72;5079396;28;20036;-40
2023/06/20 07:39:22;;;;;;;6.70;4.30;;;25.40;99.90;;;25.53;80.29;97019.78;5084835;28;20059;-39
2023/06/20 07:41:47;;;;;;;7.35;4.25;;;25.40;99.90;;;25.64;81.17;97025.91;5082813;28;20107;-38
2023/06/20 07:44:13;;;;;;;7.68;4.28;;;25.50;99.90;;;25.63;78.25;97019.69;5085101;28;20113;-39
2023/06/20 07:46:39;;;;;;;5.68;4.40;;;25.60;99.90;;;25.66;77.81;97030.16;5087534;28;21030;-38
2023/06/20 07:49:06;;;;;;;6.25;4.05;;;25.50;99.90;;;25.66;77.73;97022.06;5085471;28;20067;-41
2023/06/20 07:51:33;;;;;;;9.75;5.18;;;25.50;99.90;;;25.61;77.04;97019.00;5078280;28;20032;-39
2023/06/20 07:54:00;;;;;;;5.80;4.65;;;25.50;99.90;;;25.66;76.63;97027.47;5080846;28;20477;-39
2023/06/20 07:56:26;;;;;;;8.05;4.85;;;25.60;99.90;;;25.58;74.82;97029.28;5087148;27;20044;-40
2023/06/20 07:58:51;;;;;;;7.25;4.40;;;25.60;99.90;;;25.69;76.72;97029.81;5089325;28;20443;-39
2023/06/20 08:01:18;;;;;;;6.72;4.72;;;25.60;99.90;;;25.80;77.68;97028.69;5084250;28;20031;-39
2023/06/20 08:03:44;;;;;;;6.07;4.38;;;25.70;99.90;;;25.93;79.60;97025.56;5090061;28;20040;-40
2023/06/20 08:06:10;;;;;;;12.80;4.72;;;25.80;99.90;;;25.91;83.36;97032.97;5088459;28;20480;-41
2023/06/20 08:08:36;;;;;;;7.18;4.60;;;25.80;99.90;;;26.04;76.33;97028.00;5089815;28;20512;-40
2023/06/20 08:11:03;;;;;;;8.88;4.90;;;26.00;99.90;;;26.16;80.46;97019.59;5090973;28;20063;-43
2023/06/20 08:13:29;;;;;;;6.38;4.68;;;26.10;99.90;;;26.32;76.30;97024.19;5089694;28;20047;-40
2023/06/20 08:15:55;;;;;;;7.55;4.35;;;26.20;99.90;;;26.45;75.11;97022.72;5082634;28;20031;-41
2023/06/20 08:18:21;;;;;;;6.78;4.53;;;26.30;99.90;;;26.55;71.67;97019.84;5088280;28;20423;-39
2023/06/20 08:20:47;;;;;;;8.57;4.75;;;26.40;99.90;;;26.66;68.55;97011.44;5088946;28;20953;-40
2023/06/20 08:23:14;;;;;;;7.47;5.30;;;26.60;99.90;;;26.82;73.59;97016.03;5089369;28;20156;-40
2023/06/20 08:25:40;;;;;;;7.57;4.72;;;26.70;99.90;;;26.92;72.23;97005.06;5087771;28;20028;-40
2023/06/20 08:28:06;;;;;;;10.10;4.88;;;26.90;99.90;;;26.98;69.23;97023.31;5086905;28;20039;-39
2023/06/20 08:30:31;;;;;;;8.00;4.90;;;26.90;99.90;;;26.90;66.81;97025.16;5089165;28;20497;-40
2023/06/20 08:32:57;;;;;;;7.30;4.82;;;26.80;99.90;;;26.76;67.49;97027.53;5085729;28;20090;-40
2023/06/20 08:35:23;;;;;;;7.13;5.10;;;26.60;99.90;;;26.72;67.74;97028.03;5090925;28;20036;-39
2023/06/20 08:37:48;;;;;;;7.80;5.15;;;26.60;99.90;;;26.65;67.50;97019.75;5088826;28;20476;-39
2023/06/20 08:40:14;;;;;;;6.07;4.30;;;26.60;99.90;;;26.80;67.89;97012.66;5085610;28;20512;-40
2023/06/20 08:42:43;;;;;;;14.10;5.28;;;26.60;99.90;;;26.89;65.73;97005.38;5084155;28;20028;-39
2023/06/20 08:45:10;;;;;;;9.15;5.47;;;26.70;99.90;;;26.96;70.31;97005.56;5083324;28;20019;-39
2023/06/20 08:47:35;;;;;;;7.22;4.97;;;26.80;99.90;;;27.03;67.04;97003.88;5084366;28;20040;-40
2023/06/20 08:50:01;;;;;;;9.13;4.95;;;26.90;99.90;;;27.07;66.39;97007.06;5089377;28;20059;-40
2023/06/20 08:52:30;;;;;;;7.32;5.50;;;26.90;99.90;;;27.12;64.00;97008.25;5085684;28;20466;-40
2023/06/20 08:54:57;;;;;;;8.18;5.22;;;26.90;99.90;;;27.16;69.43;97009.59;5087666;28;20534;-39
2023/06/20 08:57:23;;;;;;;6.60;4.85;;;27.00;99.90;;;27.21;66.28;97007.22;5087891;28;20537;-39
2023/06/20 08:59:49;;;;;;;9.18;5.15;;;27.10;99.90;;;27.28;62.32;97006.56;5086122;28;20148;-39
2023/06/20 09:02:16;;;;;;;7.55;4.57;;;27.10;99.90;;;27.37;61.90;97011.81;5084749;28;20176;-40
2023/06/20 09:04:42;;;;;;;6.10;4.35;;;27.20;99.90;;;27.51;61.36;97004.84;5086007;28;20036;-39
2023/06/20 09:07:18;;;;;;;8.85;5.10;;;27.30;99.90;;;27.61;61.55;97002.75;5086794;28;20099;-40
2023/06/20 09:09:48;;;;;;;6.78;4.82;;;27.50;99.90;;;27.69;60.99;96995.63;5086211;28;20035;-39
2023/06/20 09:12:15;;;;;;;6.38;4.97;;;27.50;99.90;;;27.79;67.00;96997.13;5086532;28;20448;-38
2023/06/20 09:14:40;;;;;;;6.93;4.63;;;27.60;99.90;;;27.90;59.38;96990.50;5086504;28;20031;-39
2023/06/20 09:17:08;;;;;;;9.73;5.45;;;27.70;99.90;;;27.86;59.59;96991.84;5085562;28;20020;-39
2023/06/20 09:19:45;;;;;;;5.63;4.70;;;27.70;99.90;;;28.00;57.06;96995.72;5086836;28;20020;-39
2023/06/20 09:22:13;;;;;;;7.70;5.15;;;27.80;99.50;;;28.02;55.85;96995.56;5088426;27;20059;-40
2023/06/20 09:24:43;;;;;;;6.53;5.38;;;27.80;98.70;;;28.08;56.62;96986.72;5087621;28;20043;-40
2023/06/20 09:27:09;;;;;;;7.63;4.95;;;27.90;99.00;;;28.10;56.39;96980.09;5088940;28;20034;-39
2023/06/20 09:29:52;;;;;;;9.75;4.95;;;27.90;98.90;;;28.05;55.77;96981.63;5086891;28;20036;-39
2023/06/20 09:32:20;;;;;;;7.80;5.47;;;27.90;98.40;;;28.04;55.88;96985.38;5086486;28;20039;-39
2023/06/20 09:34:46;;;;;;;7.70;5.50;;;27.90;98.20;;;28.04;54.74;96982.66;5085325;28;20034;-40
2023/06/20 09:37:14;;;;;;;9.27;5.38;;;27.90;97.90;;;28.06;55.60;96975.19;5089849;28;20019;-39
2023/06/20 09:39:40;;;;;;;6.93;4.90;;;27.90;98.00;;;28.12;53.57;96969.94;5085484;28;20028;-39
2023/06/20 09:42:13;;;;;;;5.78;5.03;;;28.00;97.40;;;28.27;53.45;96966.44;5086587;28;20509;-40
2023/06/20 09:44:40;;;;;;;6.32;4.93;;;28.10;97.30;;;28.38;54.06;96969.59;5086759;28;20031;-39
2023/06/20 09:47:06;;;;;;;6.90;4.90;;;28.20;97.40;;;28.44;50.53;96969.88;5088577;28;20038;-39
2023/06/20 09:49:39;;;;;;;6.72;4.97;;;28.20;95.70;;;28.48;51.03;96963.94;5087377;28;20034;-40
2023/06/20 09:52:14;;;;;;;7.10;5.38;;;28.30;95.80;;;28.55;50.83;96967.66;5088698;28;20458;-40
2023/06/20 09:55:03;;;;;;;7.50;4.95;;;28.40;95.70;;;28.60;49.64;96967.09;5089259;28;20039;-40
2023/06/20 09:57:38;;;;;;;4.78;4.28;;;28.50;95.20;;;28.62;47.98;96956.91;5089315;28;20024;-40
2023/06/20 10:00:12;;;;;;;9.23;5.28;;;28.50;94.20;;;28.67;48.90;96961.78;5084902;28;20031;-39
2023/06/20 10:02:44;;;;;;;6.65;4.45;;;28.50;94.60;;;28.75;49.54;96954.44;5084668;28;20023;-40
2023/06/20 10:05:16;;;;;;;8.07;4.90;;;28.60;95.10;;;28.86;49.70;96955.03;5087107;28;20505;-39
2023/06/20 10:07:45;;;;;;;7.63;4.90;;;28.70;93.80;;;29.03;47.98;96955.72;5081834;28;20038;-39
2023/06/20 10:10:13;;;;;;;6.13;4.35;;;28.80;93.70;;;29.06;46.50;96956.19;5087150;28;20507;-40
2023/06/20 10:12:41;;;;;;;10.43;4.82;;;28.90;93.20;;;29.11;45.68;96955.66;5088537;28;20239;-40
2023/06/20 10:15:09;;;;;;;5.15;4.65;;;29.00;92.50;;;29.17;45.99;96949.50;5080994;28;20036;-39
2023/06/20 10:17:40;;;;;;;6.45;4.35;;;29.10;92.20;;;29.33;47.00;96953.94;5081679;28;20028;-40
2023/06/20 10:20:08;;;;;;;9.40;5.00;;;29.20;92.70;;;29.43;45.16;96959.94;5086213;28;20040;-40